Time;durP1;ratioP1;P1;durP2;ratioP2;P2;SDS_P1;SDS_P2;PMS_P1;PMS_P2;Temp;Humidity;BMP_temperature;BMP_pressure;BME280_temperature;BME280_humidity;BME280_pressure;Samples;Min_cycle;Max_cycle;Signal;HPM_P1;HPM_P2
2022/03/16 00:00:18;;;;;;;62.17;35.78;;;;;;;5.11;79.09;102329.78;1726654;81;21097;-77
2022/03/16 00:02:47;;;;;;;61.58;36.68;;;;;;;5.13;79.02;102332.10;1735094;81;21475;-77
2022/03/16 00:05:14;;;;;;;73.62;40.12;;;;;;;5.11;79.09;102334.11;1729943;81;21143;-77
2022/03/16 00:07:40;;;;;;;65.28;37.58;;;;;;;5.11;79.19;102331.49;1742838;80;21066;-77
2022/03/16 00:10:08;;;;;;;72.15;40.12;;;;;;;5.12;79.25;102331.98;1746241;81;21826;-77
2022/03/16 00:12:37;;;;;;;74.70;40.90;;;;;;;5.09;79.29;102335.30;1717995;82;21675;-77
2022/03/16 00:15:05;;;;;;;74.17;40.88;;;;;;;5.10;79.54;102333.17;1715591;82;21060;-76
2022/03/16 00:17:32;;;;;;;70.12;41.40;;;;;;;5.11;79.40;102329.78;1712971;82;21134;-76
2022/03/16 00:19:59;;;;;;;68.02;40.73;;;;;;;5.12;79.37;102329.38;1748590;80;21096;-76
2022/03/16 00:22:25;;;;;;;77.30;40.08;;;;;;;5.09;79.42;102331.37;1764090;79;21725;-76
2022/03/16 00:24:52;;;;;;;77.78;42.10;;;;;;;5.08;79.46;102326.94;1760039;80;21001;-77
2022/03/16 00:27:19;;;;;;;64.25;38.20;;;;;;;5.06;79.56;102328.13;1685845;82;21067;-77
2022/03/16 00:29:45;;;;;;;65.78;39.23;;;;;;;5.06;79.46;102325.52;1743829;81;21034;-77
2022/03/16 00:32:12;;;;;;;66.47;39.83;;;;;;;5.01;79.40;102320.76;1739458;81;21086;-77
2022/03/16 00:34:38;;;;;;;64.53;39.73;;;;;;;4.99;79.39;102314.52;1720064;81;22461;-77
2022/03/16 00:37:05;;;;;;;62.33;39.45;;;;;;;4.97;79.47;102318.32;1700978;82;21065;-77
2022/03/16 00:39:32;;;;;;;59.50;38.50;;;;;;;4.96;79.56;102315.63;1740559;81;21068;-76
2022/03/16 00:41:58;;;;;;;55.67;37.60;;;;;;;4.92;79.45;102309.28;1712955;82;21517;-76
2022/03/16 00:44:26;;;;;;;64.05;38.48;;;;;;;4.91;79.68;102310.05;1700387;82;21081;-76
2022/03/16 00:46:53;;;;;;;56.90;36.10;;;;;;;4.87;79.71;102310.63;1755885;80;21884;-76
2022/03/16 00:49:20;;;;;;;60.67;39.20;;;;;;;4.89;79.85;102309.04;1737527;80;21118;-76
2022/03/16 00:51:47;;;;;;;55.08;34.98;;;;;;;4.91;79.83;102313.07;1711092;81;21085;-77
2022/03/16 00:54:13;;;;;;;63.25;35.68;;;;;;;4.93;79.84;102309.77;1719866;82;21144;-77
2022/03/16 00:56:40;;;;;;;51.50;33.15;;;;;;;4.92;79.79;102309.65;1722579;82;21083;-76
2022/03/16 00:59:07;;;;;;;63.52;37.15;;;;;;;4.88;79.72;102307.24;1731691;81;22573;-76
2022/03/16 01:01:33;;;;;;;53.30;36.23;;;;;;;4.86;79.77;102308.43;1715084;81;21078;-76
2022/03/16 01:04:00;;;;;;;64.80;38.05;;;;;;;4.88;79.95;102302.03;1743424;80;22337;-76
2022/03/16 01:06:26;;;;;;;56.90;37.58;;;;;;;4.91;79.89;102297.41;1695750;83;21072;-76
2022/03/16 01:08:53;;;;;;;66.65;37.40;;;;;;;4.95;80.04;102302.05;1703669;82;21124;-76
2022/03/16 01:11:20;;;;;;;74.72;40.78;;;;;;;5.00;79.97;102303.30;1746533;81;21800;-76
2022/03/16 01:13:46;;;;;;;68.65;38.67;;;;;;;5.01;79.86;102299.88;1741253;81;21073;-76
2022/03/16 01:16:13;;;;;;;75.47;40.63;;;;;;;5.04;79.92;102305.33;1733897;81;21115;-77
2022/03/16 01:18:39;;;;;;;67.30;39.03;;;;;;;5.06;80.01;102300.72;1739377;81;21101;-77
2022/03/16 01:21:06;;;;;;;73.10;38.63;;;;;;;5.13;80.14;102301.19;1735247;81;21065;-77
2022/03/16 01:23:35;;;;;;;73.37;38.33;;;;;;;5.13;79.90;102310.33;1734800;81;21765;-77
2022/03/16 01:26:03;;;;;;;65.75;40.60;;;;;;;5.11;79.80;102309.31;1734395;81;21014;-76
2022/03/16 01:28:29;;;;;;;73.33;39.80;;;;;;;5.09;79.87;102302.67;1736160;81;21007;-75
2022/03/16 01:30:57;;;;;;;69.82;39.78;;;;;;;5.13;79.87;102301.19;1730893;81;21101;-76
2022/03/16 01:33:24;;;;;;;79.42;37.78;;;;;;;5.10;79.89;102304.46;1737979;81;21644;-76
2022/03/16 01:35:51;;;;;;;73.90;36.98;;;;;;;5.12;79.97;102298.05;1739135;81;21747;-76
2022/03/16 01:38:17;;;;;;;73.45;40.10;;;;;;;5.12;79.92;102301.56;1752827;81;21053;-75
2022/03/16 01:40:44;;;;;;;77.55;36.95;;;;;;;5.14;80.14;102302.58;1726850;81;21502;-75
2022/03/16 01:43:11;;;;;;;64.95;36.60;;;;;;;5.21;80.15;102306.14;1723889;81;21088;-76
2022/03/16 01:45:39;;;;;;;72.17;37.58;;;;;;;5.22;80.11;102303.16;1716704;81;21356;-76
2022/03/16 01:48:05;;;;;;;57.33;37.80;;;;;;;5.21;80.03;102300.92;1672143;82;21820;-76
2022/03/16 01:50:32;;;;;;;68.05;37.28;;;;;;;5.20;80.02;102297.81;1713801;82;21070;-76
2022/03/16 01:52:59;;;;;;;69.92;36.40;;;;;;;5.20;80.06;102292.97;1718288;82;21046;-75
2022/03/16 01:55:26;;;;;;;74.90;39.42;;;;;;;5.20;80.02;102299.12;1733126;82;21065;-75
2022/03/16 01:57:52;;;;;;;77.22;35.65;;;;;;;5.18;80.13;102292.89;1726680;82;21092;-75
2022/03/16 02:00:19;;;;;;;64.70;32.78;;;;;;;5.20;80.09;102295.58;1702933;82;21747;-75
2022/03/16 02:02:46;;;;;;;80.20;38.28;;;;;;;5.22;80.19;102297.52;1692165;82;21568;-76
2022/03/16 02:05:12;;;;;;;59.27;34.67;;;;;;;5.25;80.16;102299.44;1709824;82;21050;-76
2022/03/16 02:07:41;;;;;;;63.25;34.43;;;;;;;5.26;80.11;102303.88;1729309;81;22096;-76
2022/03/16 02:10:09;;;;;;;60.48;35.15;;;;;;;5.27;80.06;102305.67;1721995;81;21562;-76
2022/03/16 02:12:49;;;;;;;68.28;36.10;;;;;;;5.25;80.00;102309.50;1679578;84;21808;-76
2022/03/16 02:15:17;;;;;;;62.35;31.82;;;;;;;5.27;80.01;102314.81;1711629;81;21479;-76
2022/03/16 02:17:44;;;;;;;79.75;36.53;;;;;;;5.25;80.09;102313.42;1715660;82;21084;-76
2022/03/16 02:20:10;;;;;;;86.92;37.98;;;;;;;5.22;80.05;102311.88;1728681;82;21673;-76
2022/03/16 02:22:49;;;;;;;73.95;37.50;;;;;;;5.19;80.11;102315.57;1716325;82;21184;-76
2022/03/16 02:25:16;;;;;;;74.85;38.05;;;;;;;5.19;80.19;102315.57;1714534;81;21792;-75
2022/03/16 02:27:43;;;;;;;85.95;41.10;;;;;;;5.23;80.27;102324.53;1712450;81;21094;-76
2022/03/16 02:30:11;;;;;;;78.92;38.63;;;;;;;5.25;80.23;102326.47;1711064;81;21065;-76
2022/03/16 02:32:38;;;;;;;75.55;38.67;;;;;;;5.24;80.29;102324.64;1716633;81;21184;-76
2022/03/16 02:35:05;;;;;;;75.60;40.80;;;;;;;5.27;80.38;102330.47;1730233;81;21030;-76
2022/03/16 02:37:32;;;;;;;64.45;38.15;;;;;;;5.29;80.45;102331.89;1717887;81;21743;-76
2022/03/16 02:39:59;;;;;;;79.70;38.45;;;;;;;5.31;80.51;102336.83;1684119;84;21116;-76
2022/03/16 02:42:26;;;;;;;79.72;41.10;;;;;;;5.31;80.42;102338.13;1724351;82;21093;-77
2022/03/16 02:44:52;;;;;;;71.75;39.00;;;;;;;5.32;80.55;102336.94;1725512;81;21124;-76
2022/03/16 02:47:19;;;;;;;66.72;38.10;;;;;;;5.35;80.66;102336.24;1724040;81;21113;-76
2022/03/16 02:49:46;;;;;;;74.07;36.88;;;;;;;5.38;80.64;102343.90;1722009;81;21779;-76
2022/03/16 02:52:13;;;;;;;71.37;39.40;;;;;;;5.30;80.43;102339.84;1723682;81;21015;-76
2022/03/16 02:54:40;;;;;;;68.00;37.83;;;;;;;5.24;80.50;102342.02;1724106;81;21137;-76
2022/03/16 02:57:07;;;;;;;78.65;36.03;;;;;;;5.20;80.77;102341.27;1720414;81;21324;-76
2022/03/16 02:59:36;;;;;;;80.75;36.73;;;;;;;5.16;80.77;102343.16;1719670;81;21085;-76
2022/03/16 03:02:03;;;;;;;85.00;38.08;;;;;;;5.14;80.92;102351.27;1741457;80;21756;-75
2022/03/16 03:04:30;;;;;;;72.95;32.05;;;;;;;5.13;81.13;102355.59;1711755;82;22321;-76
2022/03/16 03:06:57;;;;;;;57.88;31.15;;;;;;;5.06;80.97;102356.84;1714041;82;21093;-76
2022/03/16 03:09:24;;;;;;;49.42;25.40;;;;;;;5.00;81.04;102357.70;1717490;82;21222;-75
2022/03/16 03:11:50;;;;;;;52.00;26.35;;;;;;;4.97;81.12;102360.48;1717415;82;21082;-76
2022/03/16 03:14:17;;;;;;;51.88;26.37;;;;;;;4.87;81.19;102368.03;1734132;80;21735;-75
2022/03/16 03:16:44;;;;;;;46.35;25.92;;;;;;;4.85;81.38;102369.22;1749028;80;21104;-75
2022/03/16 03:19:10;;;;;;;44.45;26.90;;;;;;;4.80;81.40;102372.28;1718847;80;21098;-75
2022/03/16 03:21:37;;;;;;;54.13;27.35;;;;;;;4.78;81.51;102379.98;1734158;80;21070;-75
2022/03/16 03:24:04;;;;;;;48.48;28.27;;;;;;;4.78;81.63;102381.70;1739117;80;21018;-76
2022/03/16 03:26:32;;;;;;;52.95;28.87;;;;;;;4.74;81.68;102387.08;1693224;82;22352;-76
2022/03/16 03:28:58;;;;;;;70.12;30.48;;;;;;;4.73;81.74;102380.44;1726005;81;21101;-76
2022/03/16 03:31:25;;;;;;;57.85;30.27;;;;;;;4.69;81.64;102387.13;1719559;81;21062;-76
2022/03/16 03:33:52;;;;;;;69.03;33.53;;;;;;;4.63;81.63;102391.89;1716832;81;21103;-76
2022/03/16 03:36:18;;;;;;;76.12;31.17;;;;;;;4.58;81.80;102391.93;1725203;81;21098;-76
2022/03/16 03:41:25;;;;;;;70.83;35.08;;;;;;;4.64;82.00;102402.84;1820049;76;22704;-76
2022/03/16 03:43:52;;;;;;;74.90;31.87;;;;;;;4.60;82.05;102404.72;1788177;78;21665;-76
2022/03/16 03:46:19;;;;;;;64.45;30.72;;;;;;;4.56;81.97;102416.61;1788393;77;21751;-76
2022/03/16 03:48:45;;;;;;;65.90;33.20;;;;;;;4.57;82.26;102413.60;1785503;78;21041;-76
2022/03/16 03:51:12;;;;;;;71.72;33.60;;;;;;;4.57;82.30;102402.77;1770096;80;21049;-76
2022/03/16 03:53:38;;;;;;;61.90;32.70;;;;;;;4.60;82.33;102406.02;1740147;80;21042;-76
2022/03/16 03:56:05;;;;;;;56.70;30.40;;;;;;;4.59;82.35;102404.19;1762843;80;21737;-77
2022/03/16 03:58:32;;;;;;;65.42;30.92;;;;;;;4.57;82.33;102405.78;1772785;80;22445;-77
2022/03/16 04:00:58;;;;;;;55.48;28.47;;;;;;;4.51;82.23;102409.23;1759948;80;21038;-76
2022/03/16 04:03:25;;;;;;;50.23;27.95;;;;;;;4.51;82.40;102406.22;1729738;80;21113;-77
2022/03/16 04:05:52;;;;;;;60.12;29.18;;;;;;;4.48;82.50;102405.98;1725467;80;21067;-77
2022/03/16 04:08:18;;;;;;;66.62;28.85;;;;;;;4.47;82.59;102412.00;1727354;80;21105;-76
2022/03/16 04:10:45;;;;;;;68.30;29.60;;;;;;;4.45;82.79;102410.58;1729650;80;22950;-76
2022/03/16 04:13:12;;;;;;;61.00;30.15;;;;;;;4.41;82.83;102402.02;1730591;80;21397;-76
2022/03/16 04:15:38;;;;;;;66.82;29.40;;;;;;;4.44;82.96;102404.83;1728406;80;21070;-75
2022/03/16 04:18:05;;;;;;;60.10;29.23;;;;;;;4.45;82.98;102402.75;1725607;80;21364;-75
2022/03/16 04:20:31;;;;;;;70.03;30.12;;;;;;;4.47;83.07;102406.37;1736813;80;21140;-76
2022/03/16 04:22:58;;;;;;;69.92;30.72;;;;;;;4.42;82.90;102406.82;1735862;80;21730;-76
2022/03/16 04:25:25;;;;;;;59.77;29.30;;;;;;;4.39;83.05;102402.66;1741181;80;21603;-76
2022/03/16 04:27:52;;;;;;;60.50;32.00;;;;;;;4.38;83.16;102401.77;1734827;80;21066;-76
2022/03/16 04:30:19;;;;;;;66.22;32.63;;;;;;;4.41;83.34;102402.02;1733071;80;21675;-76
2022/03/16 04:32:51;;;;;;;70.92;30.72;;;;;;;4.49;83.48;102399.98;1736764;80;21137;-77
2022/03/16 04:35:13;;;;;;;67.20;30.88;;;;;;;4.49;83.28;102401.28;1731487;80;21799;-76
2022/03/16 04:37:40;;;;;;;58.98;29.72;;;;;;;4.52;83.42;102404.52;1738403;80;21030;-76
2022/03/16 04:40:08;;;;;;;59.05;28.83;;;;;;;4.49;83.25;102402.59;1742180;79;21434;-76
2022/03/16 04:42:34;;;;;;;73.28;32.20;;;;;;;4.53;83.37;102408.95;1758154;79;21144;-76
2022/03/16 04:45:01;;;;;;;66.80;31.62;;;;;;;4.50;83.18;102413.52;1757816;79;21612;-75
2022/03/16 04:47:28;;;;;;;55.52;31.87;;;;;;;4.53;83.37;102411.56;1751185;80;21818;-76
2022/03/16 04:49:54;;;;;;;74.25;32.93;;;;;;;4.56;83.37;102416.61;1753290;80;21212;-76
2022/03/16 04:52:21;;;;;;;59.48;33.55;;;;;;;4.52;83.15;102417.14;1752442;80;21086;-76
2022/03/16 04:54:49;;;;;;;75.37;31.45;;;;;;;4.52;83.34;102417.14;1747313;80;21467;-84
2022/03/16 04:57:16;;;;;;;81.70;32.67;;;;;;;4.55;83.37;102423.02;1740450;80;21129;-81
2022/03/16 04:59:42;;;;;;;71.10;34.20;;;;;;;4.54;83.42;102421.18;1740080;80;23386;-80
2022/03/16 05:02:09;;;;;;;96.22;36.48;;;;;;;4.56;83.48;102429.66;1748729;80;21069;-79
2022/03/16 05:04:36;;;;;;;79.00;35.08;;;;;;;4.59;83.52;102430.27;1742705;80;21101;-80
2022/03/16 05:07:03;;;;;;;72.05;34.45;;;;;;;4.58;83.40;102431.98;1762630;79;21542;-80
2022/03/16 05:09:29;;;;;;;68.97;34.60;;;;;;;4.60;83.57;102431.70;1750787;79;21615;-80
2022/03/16 05:11:56;;;;;;;73.10;38.55;;;;;;;4.61;83.46;102437.41;1750303;78;21833;-80
2022/03/16 05:14:23;;;;;;;83.67;36.75;;;;;;;4.65;83.53;102433.34;1771111;79;21100;-80
2022/03/16 05:16:49;;;;;;;87.97;36.63;;;;;;;4.71;83.73;102445.56;1770401;78;21095;-80
2022/03/16 05:19:16;;;;;;;78.52;37.03;;;;;;;4.77;83.76;102448.62;1749368;79;21590;-80
2022/03/16 05:21:43;;;;;;;88.00;37.40;;;;;;;4.78;83.52;102449.53;1759901;79;21065;-81
2022/03/16 05:24:12;;;;;;;84.35;36.53;;;;;;;4.81;83.62;102450.67;1705246;80;22615;-82
2022/03/16 05:26:39;;;;;;;92.12;37.03;;;;;;;4.84;83.47;102449.61;1739362;80;21074;-81
2022/03/16 05:29:05;;;;;;;83.00;36.50;;;;;;;4.88;83.69;102450.75;1714782;80;21118;-81
2022/03/16 05:31:32;;;;;;;90.62;37.75;;;;;;;4.89;83.43;102446.43;1724159;80;21663;-79
2022/03/16 05:33:59;;;;;;;69.75;37.90;;;;;;;4.92;83.37;102459.69;1718321;80;21134;-81
2022/03/16 05:36:26;;;;;;;93.62;40.30;;;;;;;4.91;83.28;102459.20;1731490;80;22593;-82
2022/03/16 05:38:52;;;;;;;83.30;41.28;;;;;;;4.92;83.38;102450.19;1722246;80;21501;-89
2022/03/16 05:41:19;;;;;;;104.58;42.30;;;;;;;4.96;83.34;102456.14;1712186;82;21063;-86
2022/03/16 05:43:46;;;;;;;97.08;46.02;;;;;;;5.00;83.50;102452.06;1727705;81;21027;-81
2022/03/16 05:46:13;;;;;;;101.02;45.05;;;;;;;5.07;83.57;102453.03;1728512;82;21059;-79
2022/03/16 05:48:40;;;;;;;118.97;49.08;;;;;;;5.13;83.38;102458.70;1726742;81;22567;-77
2022/03/16 05:51:06;;;;;;;112.32;47.58;;;;;;;5.18;83.54;102461.27;1720863;82;21039;-83
2022/03/16 05:53:33;;;;;;;105.10;42.58;;;;;;;5.24;83.40;102460.41;1715798;82;21118;-76
2022/03/16 05:55:59;;;;;;;116.33;44.73;;;;;;;5.31;83.46;102456.56;1717881;81;21118;-76
2022/03/16 05:58:26;;;;;;;105.45;44.03;;;;;;;5.41;83.63;102460.34;1720498;81;21587;-77
2022/03/16 06:00:53;;;;;;;94.67;41.40;;;;;;;5.46;83.33;102465.88;1723811;81;21754;-76
2022/03/16 06:03:19;;;;;;;96.25;40.98;;;;;;;5.45;83.09;102466.29;1722870;81;21126;-76
2022/03/16 06:05:46;;;;;;;102.15;41.25;;;;;;;5.45;83.12;102466.70;1717172;82;21011;-77
2022/03/16 06:08:13;;;;;;;98.22;40.55;;;;;;;5.42;82.91;102476.53;1720134;81;21078;-77
2022/03/16 06:10:40;;;;;;;99.90;39.20;;;;;;;5.45;83.17;102481.06;1718930;81;21253;-77
2022/03/16 06:13:07;;;;;;;83.25;41.05;;;;;;;5.51;83.16;102477.59;1725211;81;21296;-77
2022/03/16 06:15:41;;;;;;;78.20;40.00;;;;;;;5.49;83.01;102476.57;1728592;81;21020;-77
2022/03/16 06:18:08;;;;;;;84.80;37.58;;;;;;;5.55;83.16;102474.80;1721745;81;21074;-76
2022/03/16 06:20:35;;;;;;;73.47;40.20;;;;;;;5.57;83.06;102472.80;1693868;81;21078;-75
2022/03/16 06:23:01;;;;;;;94.52;38.50;;;;;;;5.59;82.96;102477.77;1719060;81;21094;-76
2022/03/16 06:25:28;;;;;;;100.35;42.95;;;;;;;5.64;83.07;102477.68;1714040;81;21784;-76
2022/03/16 06:27:55;;;;;;;78.50;45.58;;;;;;;5.72;83.12;102478.64;1714203;81;21114;-77
2022/03/16 06:30:21;;;;;;;67.82;42.08;;;;;;;5.83;83.22;102485.14;1725632;82;21510;-76
2022/03/16 06:32:48;;;;;;;73.20;43.60;;;;;;;5.91;82.97;102492.62;1715763;81;21222;-76
2022/03/16 06:35:15;;;;;;;97.92;45.28;;;;;;;5.97;82.85;102497.05;1716606;81;21066;-74
2022/03/16 06:37:43;;;;;;;78.87;43.40;;;;;;;6.09;82.93;102498.31;1720568;81;21147;-74
2022/03/16 06:40:11;;;;;;;75.20;42.27;;;;;;;6.19;82.65;102497.78;1717722;81;21097;-74
2022/03/16 06:42:53;;;;;;;76.37;44.13;;;;;;;6.22;82.28;102499.28;1719446;81;21125;-74
2022/03/16 06:45:20;;;;;;;79.50;45.67;;;;;;;6.19;82.04;102503.38;1718641;81;21106;-74
2022/03/16 06:47:46;;;;;;;80.47;46.65;;;;;;;6.32;82.48;102507.78;1720099;81;21601;-74
2022/03/16 06:50:13;;;;;;;82.37;47.23;;;;;;;6.44;82.40;102507.34;1718574;81;21756;-74
2022/03/16 06:52:40;;;;;;;79.42;47.58;;;;;;;6.54;82.20;102507.58;1714513;81;21349;-74
2022/03/16 06:55:09;;;;;;;84.15;49.95;;;;;;;6.56;81.87;102513.41;1716520;82;21108;-74
2022/03/16 06:57:36;;;;;;;78.42;48.20;;;;;;;6.54;81.47;102511.50;1714607;81;21095;-74
2022/03/16 07:00:04;;;;;;;79.85;48.30;;;;;;;6.46;81.37;102513.96;1721665;81;21071;-74
2022/03/16 07:02:30;;;;;;;84.95;49.15;;;;;;;6.36;81.15;102523.81;1718027;81;21269;-74
2022/03/16 07:04:58;;;;;;;78.07;47.43;;;;;;;6.32;81.47;102520.85;1721591;81;21098;-74
2022/03/16 07:07:26;;;;;;;76.05;45.90;;;;;;;6.41;81.66;102520.20;1735464;80;21078;-75
2022/03/16 07:09:53;;;;;;;70.37;44.77;;;;;;;6.42;81.42;102522.03;1715769;81;21031;-74
2022/03/16 07:12:20;;;;;;;93.70;51.63;;;;;;;6.36;81.27;102526.42;1717359;82;21062;-75
2022/03/16 07:14:47;;;;;;;93.35;52.67;;;;;;;6.33;81.25;102531.43;1738225;79;21732;-73
2022/03/16 07:17:13;;;;;;;97.37;53.40;;;;;;;6.30;81.22;102531.20;1715857;82;21503;-73
2022/03/16 07:19:40;;;;;;;103.87;54.10;;;;;;;6.36;81.57;102542.13;1740926;81;21142;-73
2022/03/16 07:22:07;;;;;;;107.22;55.03;;;;;;;6.39;81.41;102539.70;1743113;80;21050;-73
2022/03/16 07:24:33;;;;;;;81.95;51.28;;;;;;;6.43;81.43;102539.52;1720161;80;21146;-75
2022/03/16 07:27:03;;;;;;;85.67;53.20;;;;;;;6.52;81.49;102540.58;1734967;80;21689;-73
2022/03/16 07:29:28;;;;;;;75.08;49.83;;;;;;;6.60;81.44;102546.84;1737343;81;21098;-73
2022/03/16 07:31:55;;;;;;;67.32;45.00;;;;;;;6.70;81.25;102550.09;1743966;80;21094;-74
2022/03/16 07:34:22;;;;;;;65.95;44.73;;;;;;;6.74;81.12;102554.77;1750898;80;21055;-74
2022/03/16 07:36:48;;;;;;;63.90;41.75;;;;;;;6.86;81.16;102560.83;1743674;80;21043;-74
2022/03/16 07:39:15;;;;;;;55.98;34.95;;;;;;;6.90;80.81;102556.72;1736230;80;21755;-74
2022/03/16 07:41:42;;;;;;;57.55;36.40;;;;;;;6.88;80.44;102563.56;1736050;81;21023;-74
2022/03/16 07:44:08;;;;;;;57.23;36.17;;;;;;;6.86;80.36;102570.41;1731835;80;21109;-73
2022/03/16 07:46:35;;;;;;;55.65;35.23;;;;;;;6.83;80.35;102584.58;1732179;80;21038;-73
2022/03/16 07:49:01;;;;;;;52.55;33.23;;;;;;;6.74;80.16;102575.70;1742078;80;21099;-74
2022/03/16 07:51:28;;;;;;;53.28;34.43;;;;;;;6.72;80.34;102579.52;1745075;80;21751;-74
2022/03/16 07:53:55;;;;;;;55.43;36.30;;;;;;;6.70;80.15;102585.42;1723753;82;21171;-74
2022/03/16 07:56:21;;;;;;;57.05;35.80;;;;;;;6.57;79.91;102588.50;1735299;81;21091;-74
2022/03/16 07:58:48;;;;;;;39.80;26.87;;;;;;;6.56;80.32;102593.63;1722999;81;21050;-74
2022/03/16 08:01:15;;;;;;;39.03;27.40;;;;;;;6.57;80.22;102590.22;1713084;81;21065;-74
2022/03/16 08:03:41;;;;;;;37.28;27.07;;;;;;;6.58;80.18;102588.09;1735824;81;21761;-74
2022/03/16 08:06:08;;;;;;;33.00;24.90;;;;;;;6.55;80.10;102595.72;1716991;82;21071;-74
2022/03/16 08:08:39;;;;;;;33.45;24.37;;;;;;;6.51;79.94;102601.12;1743915;81;21049;-74
2022/03/16 08:11:03;;;;;;;35.38;26.20;;;;;;;6.42;79.90;102611.86;1737385;81;21082;-74
2022/03/16 08:13:30;;;;;;;36.15;26.80;;;;;;;6.28;79.73;102612.98;1727015;81;21102;-74
2022/03/16 08:15:56;;;;;;;40.10;27.85;;;;;;;6.12;79.90;102611.88;1731168;80;21744;-74
2022/03/16 08:18:23;;;;;;;37.53;28.38;;;;;;;6.08;80.12;102618.05;1727988;81;21065;-74
2022/03/16 08:20:50;;;;;;;40.30;27.77;;;;;;;6.03;80.17;102625.58;1735621;81;21631;-74
2022/03/16 08:23:16;;;;;;;35.25;24.98;;;;;;;6.05;80.33;102628.30;1732486;80;21002;-74
2022/03/16 08:25:43;;;;;;;37.93;27.05;;;;;;;6.09;80.59;102631.24;1717547;81;21074;-74
2022/03/16 08:28:09;;;;;;;48.02;33.05;;;;;;;6.14;80.55;102635.11;1724952;81;21750;-74
2022/03/16 08:30:36;;;;;;;46.48;30.65;;;;;;;6.17;80.35;102635.72;1708466;82;21098;-74
2022/03/16 08:33:03;;;;;;;63.83;37.25;;;;;;;6.19;80.43;102632.81;1708665;82;21019;-74
2022/03/16 08:35:29;;;;;;;62.35;37.03;;;;;;;6.22;80.35;102635.67;1728602;81;21129;-74
2022/03/16 08:37:56;;;;;;;58.28;37.42;;;;;;;6.26;80.43;102637.70;1722408;81;21544;-74
2022/03/16 08:40:24;;;;;;;65.12;40.85;;;;;;;6.33;80.57;102642.99;1728140;80;21718;-74
2022/03/16 08:42:52;;;;;;;66.28;40.28;;;;;;;6.40;80.40;102638.69;1728256;81;21163;-74
2022/03/16 08:45:20;;;;;;;67.10;42.23;;;;;;;6.47;80.24;102642.67;1736759;81;21301;-74
2022/03/16 08:47:46;;;;;;;62.35;40.35;;;;;;;6.55;80.25;102646.73;1729075;81;21118;-74
2022/03/16 08:50:13;;;;;;;52.25;35.35;;;;;;;6.53;79.95;102644.41;1727354;81;21113;-74
2022/03/16 08:52:40;;;;;;;47.23;32.85;;;;;;;6.46;79.76;102645.70;1726606;80;21800;-74
2022/03/16 08:55:07;;;;;;;46.25;33.33;;;;;;;6.38;79.71;102659.53;1722116;81;21070;-74
2022/03/16 08:57:34;;;;;;;49.77;34.48;;;;;;;6.31;79.68;102652.03;1722038;82;21168;-74
2022/03/16 09:00:00;;;;;;;44.35;31.57;;;;;;;6.33;79.81;102643.89;1722100;82;21095;-74
2022/03/16 09:02:27;;;;;;;54.70;36.23;;;;;;;6.34;79.89;102652.64;1722304;81;21603;-74
2022/03/16 09:04:53;;;;;;;54.05;36.48;;;;;;;6.30;79.60;102655.42;1722269;81;21653;-75
2022/03/16 09:07:21;;;;;;;47.88;33.00;;;;;;;6.31;79.70;102661.59;1722005;82;21238;-74
2022/03/16 09:09:48;;;;;;;49.27;34.08;;;;;;;6.27;79.65;102659.15;1722030;81;21082;-74
2022/03/16 09:12:15;;;;;;;38.60;29.67;;;;;;;6.27;79.62;102660.45;1722005;81;21066;-74
2022/03/16 09:14:43;;;;;;;42.10;29.87;;;;;;;6.30;79.55;102658.05;1724529;81;21090;-74
2022/03/16 09:17:10;;;;;;;39.60;27.13;;;;;;;6.35;79.68;102667.14;1751629;81;21784;-74
2022/03/16 09:19:37;;;;;;;41.42;30.55;;;;;;;6.42;79.50;102672.44;1734479;81;21682;-74
2022/03/16 09:22:04;;;;;;;32.63;25.45;;;;;;;6.42;79.47;102676.36;1749194;81;21113;-74
2022/03/16 09:24:31;;;;;;;43.33;29.50;;;;;;;6.50;79.50;102680.84;1737120;81;21067;-74
2022/03/16 09:26:58;;;;;;;41.45;31.90;;;;;;;6.48;79.16;102691.19;1725714;81;21692;-74
2022/03/16 09:29:25;;;;;;;50.50;36.03;;;;;;;6.39;79.08;102686.18;1752235;81;21821;-74
2022/03/16 09:31:52;;;;;;;47.90;35.90;;;;;;;6.33;78.74;102692.69;1730307;81;21058;-74
2022/03/16 09:34:18;;;;;;;49.73;36.70;;;;;;;6.22;78.87;102691.48;1732319;81;21075;-74
2022/03/16 09:36:45;;;;;;;51.77;35.73;;;;;;;6.19;79.04;102697.81;1752277;81;21077;-74
2022/03/16 09:39:12;;;;;;;54.35;40.28;;;;;;;6.21;79.05;102699.20;1752185;81;21063;-74
2022/03/16 09:41:39;;;;;;;53.63;38.28;;;;;;;6.19;78.93;102706.97;1751831;81;21754;-74
2022/03/16 09:44:06;;;;;;;54.38;37.25;;;;;;;6.18;79.01;102712.08;1730664;81;21081;-74
2022/03/16 09:46:34;;;;;;;53.10;39.03;;;;;;;6.20;79.11;102700.92;1751585;81;21012;-74
2022/03/16 09:49:01;;;;;;;50.28;36.45;;;;;;;6.26;79.02;102706.11;1751813;81;21553;-74
2022/03/16 09:51:29;;;;;;;60.08;39.90;;;;;;;6.28;78.98;102702.80;1740011;81;21124;-74
2022/03/16 09:53:56;;;;;;;55.88;40.12;;;;;;;6.27;78.89;102708.84;1743161;81;21707;-74
2022/03/16 09:56:22;;;;;;;58.28;42.08;;;;;;;6.27;78.90;102709.21;1731566;81;21113;-74
2022/03/16 09:58:49;;;;;;;59.20;43.33;;;;;;;6.27;78.95;102719.30;1751815;81;21062;-74
2022/03/16 10:01:17;;;;;;;66.40;43.10;;;;;;;6.31;78.93;102722.65;1726287;81;21555;-74
2022/03/16 10:03:49;;;;;;;58.83;40.45;;;;;;;6.35;79.04;102716.84;1752099;81;21054;-74
2022/03/16 10:06:17;;;;;;;65.52;44.58;;;;;;;6.40;78.90;102722.39;1752080;81;21810;-74
2022/03/16 10:13:13;;;;;;;61.00;44.70;;;;;;;6.40;78.73;102722.39;1736551;81;21371;-74
2022/03/16 10:14:11;;;;;;;55.10;37.17;;;;;;;6.54;78.62;102725.63;1733197;81;21573;-74
2022/03/16 10:19:24;;;;;;;47.45;31.85;;;;;;;6.50;78.39;102728.83;1751822;81;21970;-74
2022/03/16 10:21:58;;;;;;;51.15;36.38;;;;;;;6.60;78.40;102739.16;1751880;81;22262;-74
2022/03/16 10:24:29;;;;;;;47.90;34.75;;;;;;;6.57;78.14;102727.59;1751814;81;21019;-74
2022/03/16 10:26:53;;;;;;;48.98;33.92;;;;;;;6.60;78.17;102721.25;1730416;81;21072;-74
2022/03/16 10:29:22;;;;;;;48.00;31.90;;;;;;;6.67;78.15;102722.20;1752025;81;21715;-74
2022/03/16 10:32:02;;;;;;;45.67;32.65;;;;;;;6.74;78.11;102723.17;1730783;81;22606;-74
2022/03/16 10:34:29;;;;;;;52.95;35.33;;;;;;;6.76;77.77;102720.26;1739410;81;21157;-75
2022/03/16 10:37:04;;;;;;;59.20;37.50;;;;;;;6.71;77.59;102722.94;1743372;81;21605;-74
2022/03/16 10:39:37;;;;;;;52.62;36.20;;;;;;;6.68;77.60;102731.89;1727854;81;21074;-74
2022/03/16 10:48:14;;;;;;;47.73;31.35;;;;;;;6.51;77.50;102731.03;1733430;81;21046;-73
2022/03/16 10:50:44;;;;;;;52.78;35.55;;;;;;;6.50;77.81;102734.47;1749637;81;21077;-74
2022/03/16 10:53:11;;;;;;;51.05;34.23;;;;;;;6.50;77.70;102737.98;1721845;81;21082;-74
2022/03/16 10:55:38;;;;;;;52.40;36.13;;;;;;;6.51;77.49;102734.97;1743068;81;21129;-74
2022/03/16 10:58:06;;;;;;;44.23;30.55;;;;;;;6.49;77.52;102724.79;1722228;81;23037;-73
2022/03/16 11:00:41;;;;;;;43.10;30.97;;;;;;;6.48;77.46;102725.60;1741211;81;21134;-74
2022/03/16 11:03:15;;;;;;;49.85;33.63;;;;;;;6.49;77.30;102724.79;1730822;81;21019;-73
2022/03/16 11:05:40;;;;;;;50.63;32.37;;;;;;;6.49;77.58;102724.38;1732589;81;21534;-75
2022/03/16 11:08:07;;;;;;;51.02;31.75;;;;;;;6.60;77.68;102724.77;1743006;81;21035;-73
2022/03/16 11:10:37;;;;;;;48.80;32.73;;;;;;;6.63;77.30;102720.58;1738950;81;21786;-73
2022/03/16 11:15:50;;;;;;;42.35;28.95;;;;;;;6.75;77.28;102722.76;1734626;81;21078;-74
2022/03/16 11:18:18;;;;;;;37.53;29.10;;;;;;;6.81;77.15;102720.57;1750729;81;21042;-73
2022/03/16 11:20:48;;;;;;;39.90;28.98;;;;;;;6.96;76.96;102724.69;1732578;81;21108;-74
2022/03/16 11:26:48;;;;;;;74.82;42.43;;;;;;;7.03;76.09;102737.83;1735533;81;21070;-74
2022/03/16 11:29:38;;;;;;;155.37;91.75;;;;;;;7.07;76.10;102735.94;1732410;81;21089;-74
2022/03/16 11:32:17;;;;;;;45.40;32.35;;;;;;;7.13;76.06;102737.30;1691154;81;21173;-74
2022/03/16 11:35:00;;;;;;;42.95;31.57;;;;;;;7.24;75.52;102735.41;1736612;81;21058;-74
2022/03/16 11:37:47;;;;;;;69.05;47.90;;;;;;;7.35;75.36;102732.24;1728761;81;22364;-74